Time;durP1;ratioP1;P1;durP2;ratioP2;P2;SDS_P1;SDS_P2;PMS_P1;PMS_P2;Temp;Humidity;BMP_temperature;BMP_pressure;BME280_temperature;BME280_humidity;BME280_pressure;Samples;Min_cycle;Max_cycle;Signal;HPM_P1;HPM_P2
2023/01/31 00:00:18;;;;;;;18.35;3.38;;;;;;;;;;4957367;28;20065;-65
2023/01/31 00:02:44;;;;;;;20.08;3.92;;;;;;;;;;4972576;28;20121;-65
2023/01/31 00:05:10;;;;;;;24.30;3.80;;;;;;;;;;4984407;28;20038;-65
2023/01/31 00:07:35;;;;;;;18.85;3.55;;;4.10;99.90;;;;;;4969133;28;20508;-65
2023/01/31 00:10:01;;;;;;;19.02;3.47;;;4.00;99.90;;;;;;4981891;28;20127;-65
2023/01/31 00:12:27;;;;;;;16.42;3.20;;;;;;;;;;4963461;28;20042;-65
2023/01/31 00:14:53;;;;;;;15.25;2.90;;;;;;;;;;4964972;28;20056;-64
2023/01/31 00:17:18;;;;;;;22.70;4.03;;;;;;;;;;4953968;28;20086;-65
2023/01/31 00:19:44;;;;;;;15.43;2.42;;;;;;;;;;4982757;28;20038;-65
2023/01/31 00:22:10;;;;;;;14.23;3.50;;;;;;;;;;4960904;28;20046;-65
2023/01/31 00:24:36;;;;;;;18.13;3.45;;;3.60;99.90;;;;;;4985141;28;20034;-65
2023/01/31 00:27:02;;;;;;;12.65;3.05;;;;;;;;;;4983894;28;20680;-65
2023/01/31 00:29:28;;;;;;;23.40;3.38;;;;;;;;;;4979702;28;20097;-65
2023/01/31 00:31:54;;;;;;;20.98;3.40;;;;;;;;;;4956099;28;20043;-65
2023/01/31 00:34:20;;;;;;;16.80;4.32;;;;;;;;;;4961208;28;20088;-64
2023/01/31 00:36:46;;;;;;;15.45;3.28;;;;;;;;;;4964637;28;20489;-65
2023/01/31 00:39:12;;;;;;;14.25;2.55;;;;;;;;;;4961386;28;20062;-65
2023/01/31 00:41:38;;;;;;;15.05;3.28;;;;;;;;;;4974404;28;20480;-64
2023/01/31 00:44:05;;;;;;;19.15;3.15;;;;;;;;;;4951019;28;20225;-65
2023/01/31 00:46:31;;;;;;;16.02;2.95;;;;;;;;;;4980641;28;20042;-65
2023/01/31 00:48:57;;;;;;;16.40;4.18;;;;;;;;;;4962856;28;20452;-64
2023/01/31 00:51:24;;;;;;;20.67;3.17;;;;;;;;;;4964518;28;20665;-65
2023/01/31 00:53:50;;;;;;;11.52;2.80;;;;;;;;;;4984693;28;20038;-65
2023/01/31 00:56:18;;;;;;;18.13;3.33;;;3.40;99.90;;;;;;4944599;28;20045;-65
2023/01/31 00:58:44;;;;;;;17.20;3.03;;;;;;;;;;4963048;28;20073;-64
2023/01/31 01:01:12;;;;;;;15.88;2.70;;;3.40;99.90;;;;;;4976556;28;20483;-65
2023/01/31 01:03:39;;;;;;;7.15;1.95;;;;;;;;;;4982845;28;20035;-65
2023/01/31 01:06:06;;;;;;;11.38;2.97;;;3.50;99.90;;;;;;4973009;28;20046;-65
2023/01/31 01:08:32;;;;;;;16.90;3.00;;;;;;;;;;4959862;28;20051;-65
2023/01/31 01:11:24;;;;;;;18.98;2.40;;;;;;;;;;4984049;28;20053;-65
2023/01/31 01:13:51;;;;;;;21.30;2.75;;;;;;;;;;4963404;28;20058;-64
2023/01/31 01:16:18;;;;;;;18.50;2.20;;;;;;;;;;4985596;28;20504;-65
2023/01/31 01:18:46;;;;;;;12.00;2.80;;;;;;;;;;4964637;28;20065;-64
2023/01/31 01:21:17;;;;;;;14.80;2.85;;;;;;;;;;4977648;28;20042;-65
2023/01/31 01:23:43;;;;;;;16.70;3.42;;;;;;;;;;4980363;28;20042;-65
2023/01/31 01:26:13;;;;;;;17.27;3.08;;;;;;;;;;4980902;28;20052;-65
2023/01/31 01:28:39;;;;;;;13.90;2.88;;;;;;;;;;4983409;28;20570;-65
2023/01/31 01:31:06;;;;;;;9.73;2.85;;;;;;;;;;4966331;28;20050;-65
2023/01/31 01:33:32;;;;;;;12.93;2.25;;;;;;;;;;4981896;28;20065;-65
2023/01/31 01:36:05;;;;;;;15.27;3.67;;;;;;;;;;4961038;28;20060;-65
2023/01/31 01:38:33;;;;;;;18.02;2.97;;;;;;;;;;4962643;28;20424;-64
2023/01/31 01:40:59;;;;;;;16.17;2.65;;;;;;;;;;4966523;28;20133;-65
2023/01/31 01:43:39;;;;;;;11.15;2.97;;;;;;;;;;4951621;28;20042;-65
2023/01/31 01:46:05;;;;;;;19.08;2.60;;;;;;;;;;4962832;28;20069;-64
2023/01/31 01:48:32;;;;;;;12.68;2.85;;;;;;;;;;4985338;28;20046;-64
2023/01/31 01:50:58;;;;;;;16.23;2.67;;;;;;;;;;4976416;28;20114;-65
2023/01/31 01:53:27;;;;;;;13.95;2.80;;;;;;;;;;4986143;28;20146;-65
2023/01/31 01:55:54;;;;;;;13.07;2.30;;;;;;;;;;4977188;28;20039;-65
2023/01/31 01:58:26;;;;;;;12.88;2.58;;;;;;;;;;4962515;28;20799;-65
2023/01/31 02:00:53;;;;;;;10.02;2.63;;;;;;;;;;4964198;28;20057;-65
2023/01/31 02:03:19;;;;;;;10.57;2.15;;;;;;;;;;4983718;28;20121;-65
2023/01/31 02:05:47;;;;;;;12.65;2.10;;;;;;;;;;4966631;28;20381;-65
2023/01/31 02:08:15;;;;;;;13.88;3.08;;;;;;;;;;4963500;28;20496;-65
2023/01/31 02:10:47;;;;;;;16.48;2.92;;;;;;;;;;4962974;28;20034;-64
2023/01/31 02:13:14;;;;;;;18.30;2.97;;;;;;;;;;4959166;28;20072;-65
2023/01/31 02:15:39;;;;;;;16.88;2.60;;;;;;;;;;4982329;28;20396;-65
2023/01/31 02:18:06;;;;;;;14.38;2.72;;;;;;;;;;4982920;28;20050;-64
2023/01/31 02:20:44;;;;;;;16.17;2.53;;;;;;;;;;4982148;28;20451;-65
2023/01/31 02:23:29;;;;;;;13.27;2.60;;;;;;;;;;4964430;28;20042;-64
2023/01/31 02:26:09;;;;;;;9.98;2.38;;;;;;;;;;4953204;28;20074;-65
2023/01/31 02:28:54;;;;;;;12.13;2.58;;;;;;;;;;4949871;28;20049;-65
2023/01/31 02:31:35;;;;;;;13.20;2.93;;;;;;;;;;4967486;28;20550;-65
2023/01/31 02:34:13;;;;;;;14.48;2.65;;;;;;;;;;4955796;28;20047;-64
2023/01/31 02:36:55;;;;;;;16.90;3.03;;;;;;;;;;4956035;28;20128;-65
2023/01/31 02:39:21;;;;;;;14.55;2.28;;;;;;;;;;4967247;28;20054;-65
2023/01/31 02:41:51;;;;;;;12.82;2.47;;;;;;;;;;4981371;28;20412;-65
2023/01/31 02:45:00;;;;;;;9.98;2.45;;;;;;;;;;4976465;28;20057;-65
2023/01/31 02:47:38;;;;;;;18.13;3.40;;;;;;;;;;4951371;28;20051;-65
2023/01/31 02:50:11;;;;;;;18.10;2.40;;;;;;;;;;4961534;28;20050;-65
2023/01/31 02:52:48;;;;;;;18.98;3.10;;;;;;;;;;4978811;28;20046;-65
2023/01/31 02:58:07;;;;;;;9.23;2.13;;;;;;;;;;4980163;28;20042;-64
2023/01/31 03:00:34;;;;;;;13.73;2.50;;;;;;;;;;4976211;28;20062;-65
2023/01/31 03:03:00;;;;;;;13.23;2.80;;;;;;;;;;4959916;28;20077;-65
2023/01/31 03:05:26;;;;;;;14.43;3.15;;;;;;;;;;4981887;28;20048;-64
2023/01/31 03:07:54;;;;;;;16.52;2.85;;;;;;;;;;4955977;28;20061;-64
2023/01/31 03:10:27;;;;;;;10.60;2.40;;;;;;;;;;4979792;28;20527;-65
2023/01/31 03:13:08;;;;;;;20.52;3.33;;;;;;;;;;4950511;28;21276;-65
2023/01/31 03:18:46;;;;;;;12.07;2.10;;;;;;;;;;4957145;28;20109;-64
2023/01/31 03:21:13;;;;;;;21.83;3.40;;;;;;;;;;4976506;28;20042;-65
2023/01/31 03:23:40;;;;;;;21.48;3.25;;;;;;;;;;4958105;28;20084;-65
2023/01/31 03:26:07;;;;;;;13.68;3.60;;;;;;;;;;4979668;28;20085;-65
2023/01/31 03:28:39;;;;;;;16.25;2.67;;;;;;;;;;4982732;28;20093;-65
2023/01/31 03:31:18;;;;;;;25.30;2.95;;;;;;;;;;4983597;28;20073;-65
2023/01/31 03:33:47;;;;;;;22.00;4.03;;;;;;;;;;4983998;28;21223;-65
2023/01/31 03:36:19;;;;;;;8.68;2.60;;;;;;;;;;4984317;28;20042;-65
2023/01/31 03:38:50;;;;;;;16.58;3.35;;;;;;;;;;4967800;28;20085;-64
2023/01/31 03:41:33;;;;;;;22.05;3.88;;;;;;;;;;4967926;28;20061;-65
2023/01/31 03:44:03;;;;;;;20.15;3.53;;;;;;;;;;4982870;28;20121;-65
2023/01/31 03:46:43;;;;;;;19.75;3.67;;;;;;;;;;4957438;28;20122;-65
2023/01/31 03:49:11;;;;;;;16.90;3.13;;;;;;;;;;4962050;28;20452;-65
2023/01/31 03:51:38;;;;;;;23.60;4.15;;;;;;;;;;4963213;28;20074;-65
2023/01/31 03:54:17;;;;;;;12.63;3.15;;;5.30;99.90;;;;;;4986038;28;20126;-65
2023/01/31 03:56:48;;;;;;;17.80;3.65;;;;;;;;;;4983081;28;20679;-65
2023/01/31 03:59:21;;;;;;;27.65;4.25;;;;;;;;;;4967769;28;20046;-65
2023/01/31 04:01:49;;;;;;;19.17;3.22;;;;;;;;;;4980037;28;20061;-65
2023/01/31 04:04:27;;;;;;;17.65;3.65;;;;;;;;;;4984077;28;20408;-65
2023/01/31 04:06:54;;;;;;;24.55;4.53;;;;;;;;;;4986350;28;20049;-65
2023/01/31 04:09:20;;;;;;;18.33;3.40;;;;;;;;;;4982850;28;20050;-65
2023/01/31 04:11:49;;;;;;;16.38;3.63;;;;;;;;;;4983719;28;20046;-65
2023/01/31 04:14:16;;;;;;;16.33;3.58;;;;;;;;;;4957180;28;20129;-65
2023/01/31 04:16:42;;;;;;;25.27;5.38;;;;;;;;;;4967785;28;20500;-65
2023/01/31 04:19:08;;;;;;;25.05;4.00;;;;;;;;;;4965433;28;20066;-65
2023/01/31 04:21:34;;;;;;;26.05;4.45;;;;;;;;;;4967083;28;20049;-65
2023/01/31 04:24:00;;;;;;;35.10;4.90;;;;;;;;;;4967989;28;20042;-65
2023/01/31 04:26:26;;;;;;;18.23;3.65;;;;;;;;;;4966970;28;20121;-65
2023/01/31 04:28:52;;;;;;;20.23;4.93;;;;;;;;;;4985628;28;20420;-65
2023/01/31 04:31:18;;;;;;;26.58;5.63;;;;;;;;;;4984711;28;20050;-65
2023/01/31 04:33:44;;;;;;;23.40;5.68;;;;;;;;;;4962136;28;20068;-65
2023/01/31 04:36:10;;;;;;;18.27;4.50;;;;;;;;;;4957418;28;20054;-65
2023/01/31 04:38:36;;;;;;;25.33;5.45;;;;;;;;;;4958573;28;20050;-65
2023/01/31 04:41:02;;;;;;;31.95;4.90;;;;;;;;;;4960223;28;20548;-65
2023/01/31 04:43:28;;;;;;;26.50;5.18;;;;;;;;;;4981805;28;20043;-65
2023/01/31 04:45:54;;;;;;;17.95;4.53;;;;;;;;;;4979796;28;20038;-65
2023/01/31 04:48:20;;;;;;;22.75;4.82;;;;;;;;;;4984351;28;20068;-65
2023/01/31 04:50:46;;;;;;;23.40;4.47;;;;;;;;;;4985914;28;20046;-65
2023/01/31 04:53:12;;;;;;;24.67;5.57;;;;;;;;;;4964391;28;20051;-65
2023/01/31 04:55:38;;;;;;;15.98;3.97;;;;;;;;;;4961556;28;20074;-65
2023/01/31 04:58:04;;;;;;;26.00;4.05;;;5.60;99.90;;;;;;4979858;28;20042;-65
2023/01/31 05:00:30;;;;;;;24.38;4.18;;;;;;;;;;4965811;28;20046;-64
2023/01/31 05:02:56;;;;;;;21.05;4.13;;;;;;;;;;4982195;28;20143;-65
2023/01/31 05:05:22;;;;;;;19.25;4.35;;;;;;;;;;4965763;28;20104;-65
2023/01/31 05:07:48;;;;;;;20.00;4.47;;;;;;;;;;4984232;28;20047;-65
2023/01/31 05:10:15;;;;;;;15.38;4.50;;;;;;;;;;4982495;28;20045;-65
2023/01/31 05:12:41;;;;;;;21.98;3.95;;;;;;;;;;4985943;28;20053;-65
2023/01/31 05:15:07;;;;;;;17.52;3.92;;;;;;;;;;4983089;28;20042;-65
2023/01/31 05:17:33;;;;;;;26.20;4.20;;;;;;;;;;4963928;28;20043;-65
2023/01/31 05:19:59;;;;;;;24.05;5.03;;;;;;;;;;4967716;28;20074;-65
2023/01/31 05:22:26;;;;;;;28.08;5.82;;;;;;;;;;4958526;28;20081;-65
2023/01/31 05:24:52;;;;;;;20.73;4.97;;;;;;;;;;4979890;28;20045;-65
2023/01/31 05:27:18;;;;;;;24.30;3.58;;;;;;;;;;4980084;28;20038;-64
2023/01/31 05:29:44;;;;;;;19.40;5.25;;;;;;;;;;4964228;28;20637;-65
2023/01/31 05:32:10;;;;;;;23.20;4.95;;;;;;;;;;4957433;28;20082;-65
2023/01/31 05:34:37;;;;;;;23.98;5.22;;;;;;;;;;4961621;28;20054;-65
2023/01/31 05:37:03;;;;;;;23.10;5.70;;;;;;;;;;4968649;28;20574;-65
2023/01/31 05:39:29;;;;;;;28.25;5.45;;;;;;;;;;4965284;28;20228;-65
2023/01/31 05:41:55;;;;;;;30.75;5.00;;;;;;;;;;4964568;28;20069;-64
2023/01/31 05:44:21;;;;;;;30.95;5.32;;;;;;;;;;4964681;28;20100;-65
2023/01/31 05:46:47;;;;;;;25.08;5.30;;;;;;;;;;4961116;28;20049;-65
2023/01/31 05:49:14;;;;;;;25.02;4.72;;;;;;;;;;4963394;28;20057;-65
2023/01/31 05:51:40;;;;;;;23.02;6.22;;;;;;;;;;4967673;28;20161;-65
2023/01/31 05:54:06;;;;;;;25.88;4.75;;;;;;;;;;4964053;28;20054;-65
2023/01/31 05:56:32;;;;;;;24.65;4.50;;;;;;;;;;4962518;28;20555;-65
2023/01/31 05:58:59;;;;;;;22.25;4.95;;;;;;;;;;4958421;28;20050;-65
2023/01/31 06:01:26;;;;;;;20.90;4.85;;;5.80;99.90;;;;;;4982922;28;20741;-64
2023/01/31 06:03:52;;;;;;;26.15;5.95;;;;;;;;;;4980749;28;20034;-65
2023/01/31 06:06:18;;;;;;;25.60;4.68;;;;;;;;;;4983507;28;20046;-65
2023/01/31 06:08:45;;;;;;;21.92;5.18;;;;;;;;;;4965371;28;20130;-64
2023/01/31 06:11:11;;;;;;;25.25;5.43;;;;;;;;;;4976199;28;20051;-65
2023/01/31 06:13:38;;;;;;;24.90;5.63;;;;;;;;;;4974049;28;20054;-65
2023/01/31 06:16:04;;;;;;;22.88;4.35;;;;;;;;;;4958332;28;20050;-65
2023/01/31 06:18:30;;;;;;;19.85;6.10;;;;;;;;;;4982071;28;20046;-64
2023/01/31 06:20:56;;;;;;;22.88;4.72;;;;;;;;;;4976452;28;20523;-64
2023/01/31 06:23:22;;;;;;;23.92;4.05;;;;;;;;;;4957540;28;20564;-65
2023/01/31 06:25:49;;;;;;;29.27;6.13;;;;;;;;;;4979825;28;20049;-65
2023/01/31 06:28:15;;;;;;;21.30;5.15;;;;;;;;;;4979875;28;20129;-64
2023/01/31 06:30:41;;;;;;;19.17;4.40;;;;;;;;;;4959637;28;20062;-64
2023/01/31 06:33:08;;;;;;;16.73;4.68;;;;;;;;;;4975285;28;20053;-65
2023/01/31 06:35:34;;;;;;;25.52;5.10;;;6.20;99.90;;;;;;4965492;28;20518;-65
2023/01/31 06:38:00;;;;;;;17.92;4.25;;;;;;;;;;4965424;28;20054;-65
2023/01/31 06:40:26;;;;;;;24.33;5.35;;;;;;;;;;4976861;28;20551;-64
2023/01/31 06:42:52;;;;;;;19.05;3.85;;;;;;;;;;4958320;28;20129;-65
2023/01/31 06:45:18;;;;;;;21.98;5.35;;;;;;;;;;4974408;28;20038;-65
2023/01/31 06:47:44;;;;;;;26.50;6.68;;;6.10;99.90;;;;;;4953264;28;20038;-64
2023/01/31 06:50:10;;;;;;;25.08;5.78;;;;;;;;;;4972766;28;20049;-65
2023/01/31 06:52:36;;;;;;;18.38;3.90;;;;;;;;;;4981162;28;20050;-65
2023/01/31 06:55:02;;;;;;;27.92;4.55;;;;;;;;;;4962270;28;20042;-65
2023/01/31 06:57:28;;;;;;;21.83;3.95;;;;;;;;;;4957453;28;20046;-65
2023/01/31 06:59:54;;;;;;;18.98;4.55;;;;;;;;;;4974702;28;20077;-64
2023/01/31 07:02:20;;;;;;;18.95;4.50;;;;;;;;;;4973752;28;20050;-65
2023/01/31 07:04:46;;;;;;;21.55;4.18;;;6.20;99.90;;;;;;4979733;28;20381;-64
2023/01/31 07:07:12;;;;;;;18.38;4.43;;;;;;;;;;4977759;28;20043;-65
2023/01/31 07:09:38;;;;;;;23.17;4.57;;;;;;;;;;4975619;28;20046;-64
2023/01/31 07:12:04;;;;;;;20.05;3.55;;;;;;;;;;4982661;28;20049;-64
2023/01/31 07:14:30;;;;;;;22.15;3.70;;;;;;;;;;4976568;28;20058;-64
2023/01/31 07:16:56;;;;;;;21.67;3.83;;;;;;;;;;4960396;28;20041;-65
2023/01/31 07:19:22;;;;;;;29.08;5.32;;;;;;;;;;4965450;28;20046;-65
2023/01/31 07:21:48;;;;;;;25.85;3.92;;;;;;;;;;4984627;28;20455;-65
2023/01/31 07:24:17;;;;;;;16.13;3.85;;;;;;;;;;4982948;28;20058;-64
2023/01/31 07:26:43;;;;;;;20.63;4.45;;;;;;;;;;4981601;28;20043;-65
2023/01/31 07:29:10;;;;;;;23.30;4.45;;;;;;;;;;4964799;28;20405;-65
2023/01/31 07:31:37;;;;;;;14.38;3.28;;;;;;;;;;4984105;28;20648;-66
2023/01/31 07:34:03;;;;;;;17.25;3.40;;;;;;;;;;4962071;28;20058;-66
2023/01/31 07:36:28;;;;;;;18.73;3.70;;;;;;;;;;4979580;28;20065;-65
2023/01/31 07:38:55;;;;;;;23.67;4.70;;;;;;;;;;4971296;28;20055;-66
2023/01/31 07:41:22;;;;;;;16.95;4.00;;;;;;;;;;4955185;28;20042;-65
2023/01/31 07:43:48;;;;;;;21.55;4.20;;;;;;;;;;4966232;28;20120;-66
2023/01/31 07:46:14;;;;;;;22.33;3.83;;;;;;;;;;4961555;28;20125;-66
2023/01/31 07:48:40;;;;;;;18.05;4.38;;;;;;;;;;4932238;28;20776;-66
2023/01/31 07:51:06;;;;;;;23.70;4.95;;;;;;;;;;4957011;28;20049;-65
2023/01/31 07:53:33;;;;;;;13.85;3.67;;;;;;;;;;4972783;28;20046;-66
2023/01/31 07:56:09;;;;;;;20.33;3.90;;;;;;;;;;4968495;28;20854;-66
2023/01/31 07:58:36;;;;;;;21.88;3.63;;;;;;;;;;4970447;28;20050;-66
2023/01/31 08:03:47;;;;;;;17.40;3.17;;;;;;;;;;4956896;28;20046;-66
2023/01/31 08:06:14;;;;;;;15.73;3.40;;;;;;;;;;4982433;28;20078;-66
2023/01/31 08:08:41;;;;;;;14.18;3.25;;;;;;;;;;4982234;28;20460;-66
2023/01/31 08:11:07;;;;;;;17.65;4.25;;;;;;;;;;4958110;28;20054;-65
2023/01/31 08:13:34;;;;;;;14.88;2.97;;;;;;;;;;4960498;28;20153;-66
2023/01/31 08:16:00;;;;;;;15.98;4.03;;;;;;;;;;4953930;28;20059;-66
2023/01/31 08:18:26;;;;;;;14.88;3.35;;;;;;;;;;4969330;28;20043;-66
2023/01/31 08:20:52;;;;;;;14.13;3.13;;;;;;;;;;4959693;28;20046;-66
2023/01/31 08:23:19;;;;;;;14.25;3.00;;;;;;;;;;4980416;28;20446;-66
2023/01/31 08:25:44;;;;;;;11.77;3.30;;;;;;;;;;4981824;28;20038;-66
2023/01/31 08:28:11;;;;;;;15.55;3.05;;;;;;;;;;4977846;28;20046;-66
2023/01/31 08:30:40;;;;;;;18.45;5.40;;;;;;;;;;4981716;28;20427;-65
2023/01/31 08:33:07;;;;;;;16.67;3.88;;;;;;;;;;4982568;28;20221;-66
2023/01/31 08:35:33;;;;;;;12.60;2.90;;;;;;;;;;4983540;28;20047;-65
2023/01/31 08:37:59;;;;;;;22.05;4.22;;;;;;;;;;4973399;28;20476;-65
2023/01/31 08:40:25;;;;;;;12.52;2.92;;;;;;;;;;4956942;28;20051;-65
2023/01/31 08:42:57;;;;;;;18.00;4.18;;;;;;;;;;4956593;28;20090;-65
2023/01/31 08:45:23;;;;;;;19.77;3.45;;;;;;;;;;4975623;28;20039;-65
2023/01/31 08:47:54;;;;;;;15.10;4.30;;;;;;;;;;4958833;28;20050;-65
2023/01/31 08:50:20;;;;;;;21.13;4.22;;;;;;;;;;4977885;28;20050;-65
2023/01/31 08:52:46;;;;;;;17.73;4.75;;;;;;;;;;4964506;28;20125;-65
2023/01/31 08:55:12;;;;;;;27.95;4.43;;;;;;;;;;4983840;28;20848;-65
2023/01/31 08:57:44;;;;;;;18.60;3.33;;;;;;;;;;4969213;28;20053;-65
2023/01/31 09:00:11;;;;;;;14.85;3.47;;;;;;;;;;4984058;28;20076;-65
2023/01/31 09:02:37;;;;;;;17.63;3.70;;;;;;;;;;4962855;28;20574;-65
2023/01/31 09:05:03;;;;;;;25.40;3.35;;;;;;;;;;4985103;28;20137;-65
2023/01/31 09:07:29;;;;;;;19.40;3.60;;;;;;;;;;4980802;28;20042;-65
2023/01/31 09:09:55;;;;;;;21.80;3.25;;;;;;;;;;4965464;28;20038;-65
2023/01/31 09:12:21;;;;;;;15.00;3.65;;;;;;;;;;4980411;28;20062;-65
2023/01/31 09:14:47;;;;;;;11.98;3.22;;;;;;;;;;4971508;28;20038;-65
2023/01/31 09:17:13;;;;;;;15.15;4.05;;;;;;;;;;4948731;28;20074;-65
2023/01/31 09:19:38;;;;;;;21.48;5.00;;;;;;;;;;4960025;28;20845;-65
2023/01/31 09:22:05;;;;;;;17.23;2.90;;;;;;;;;;4980297;28;20149;-65
2023/01/31 09:24:31;;;;;;;19.52;4.72;;;;;;;;;;4962862;28;20042;-65
2023/01/31 09:26:56;;;;;;;23.40;3.72;;;;;;;;;;4963587;28;20047;-65
2023/01/31 09:29:22;;;;;;;16.88;3.72;;;7.10;99.90;;;;;;4970834;28;20049;-65
2023/01/31 09:31:51;;;;;;;18.15;5.20;;;;;;;;;;4959020;28;20046;-65
2023/01/31 09:34:17;;;;;;;15.98;3.67;;;;;;;;;;4955067;28;20173;-65
2023/01/31 09:36:44;;;;;;;19.33;3.88;;;;;;;;;;4955300;28;20140;-65
2023/01/31 09:39:11;;;;;;;16.13;3.92;;;;;;;;;;4973783;28;20600;-65
2023/01/31 09:41:41;;;;;;;19.17;4.18;;;;;;;;;;4960486;28;20097;-65
2023/01/31 09:44:13;;;;;;;22.42;4.03;;;;;;;;;;4979931;28;20049;-65
2023/01/31 09:46:42;;;;;;;19.90;4.40;;;;;;;;;;4976960;28;20053;-65
2023/01/31 09:49:10;;;;;;;22.23;6.20;;;;;;;;;;4955636;28;20059;-65
2023/01/31 09:51:37;;;;;;;15.07;3.83;;;;;;;;;;4977255;28;20035;-65
2023/01/31 09:54:04;;;;;;;20.52;3.72;;;;;;;;;;4976523;28;21572;-65
2023/01/31 09:56:45;;;;;;;15.98;4.20;;;;;;;;;;4958094;28;20719;-65
2023/01/31 09:59:11;;;;;;;15.90;3.90;;;;;;;;;;4960690;28;20048;-65
2023/01/31 10:01:56;;;;;;;18.05;4.40;;;;;;;;;;4966263;28;20046;-65
2023/01/31 10:04:35;;;;;;;20.77;4.35;;;;;;;;;;4985929;28;20052;-65
2023/01/31 10:07:04;;;;;;;18.67;3.58;;;;;;;;;;4970624;28;20050;-65
2023/01/31 10:09:39;;;;;;;19.65;4.82;;;;;;;;;;4970602;28;20046;-65
2023/01/31 10:12:10;;;;;;;22.15;4.57;;;;;;;;;;4951257;28;20413;-65
2023/01/31 10:14:41;;;;;;;16.50;4.00;;;;;;;;;;4953331;28;20407;-65
2023/01/31 10:17:11;;;;;;;23.00;5.15;;;;;;;;;;4960875;28;20050;-65
2023/01/31 10:19:41;;;;;;;24.20;4.75;;;;;;;;;;4961233;28;20175;-65
2023/01/31 10:22:09;;;;;;;23.27;6.10;;;;;;;;;;4960214;28;20082;-65
2023/01/31 10:24:39;;;;;;;18.83;5.55;;;;;;;;;;4940444;28;20671;-65
2023/01/31 10:27:07;;;;;;;29.38;6.35;;;;;;;;;;4945702;28;20050;-65
2023/01/31 10:29:37;;;;;;;28.33;6.40;;;;;;;;;;4946469;28;20047;-65
2023/01/31 10:32:05;;;;;;;30.30;6.45;;;;;;;;;;4948720;28;20427;-65
2023/01/31 10:34:37;;;;;;;23.73;5.97;;;;;;;;;;4956027;28;20050;-65
2023/01/31 10:37:12;;;;;;;31.17;6.28;;;;;;;;;;4952240;28;20408;-65
2023/01/31 10:40:00;;;;;;;22.67;5.47;;;;;;;;;;4940625;28;20088;-65
2023/01/31 10:42:26;;;;;;;27.75;5.20;;;;;;;;;;4970758;28;20038;-65
2023/01/31 10:44:54;;;;;;;20.15;4.43;;;;;;;;;;4970981;28;20496;-65
2023/01/31 10:47:23;;;;;;;27.92;4.32;;;;;;;;;;4966978;28;20042;-65
2023/01/31 10:49:50;;;;;;;28.45;4.50;;;;;;;;;;4948432;28;20054;-65
2023/01/31 10:52:28;;;;;;;25.50;4.20;;;;;;;;;;4947181;28;20046;-65
2023/01/31 10:55:02;;;;;;;21.48;4.32;;;;;;;;;;4955576;28;20512;-65
2023/01/31 10:57:28;;;;;;;27.88;6.28;;;;;;;;;;4967911;28;20053;-65
2023/01/31 10:59:54;;;;;;;26.08;4.60;;;;;;;;;;4965472;28;20046;-65
2023/01/31 11:02:22;;;;;;;24.80;4.68;;;;;;;;;;4953175;28;20047;-65
2023/01/31 11:04:50;;;;;;;15.80;4.88;;;;;;;;;;4969538;28;20054;-65
2023/01/31 11:07:16;;;;;;;24.23;4.25;;;;;;;;;;4977896;28;20524;-65
2023/01/31 11:09:46;;;;;;;22.17;3.47;;;;;;;;;;4958725;28;20047;-65
2023/01/31 11:12:12;;;;;;;27.92;4.20;;;;;;;;;;4959764;28;20567;-65
2023/01/31 11:14:38;;;;;;;22.70;4.38;;;;;;;;;;4976313;28;20054;-65
2023/01/31 11:17:04;;;;;;;22.80;3.50;;;;;;;;;;4978231;28;20100;-65
2023/01/31 11:19:34;;;;;;;17.88;3.88;;;;;;;;;;4958258;28;20613;-65
2023/01/31 11:22:00;;;;;;;28.23;5.07;;;;;;;;;;4962897;28;20046;-65
2023/01/31 11:24:28;;;;;;;18.98;3.42;;;;;;;;;;4974433;28;20038;-65
2023/01/31 11:27:08;;;;;;;17.45;3.35;;;7.60;99.90;;;;;;4963569;28;20112;-65
2023/01/31 11:29:42;;;;;;;17.13;4.78;;;7.70;99.90;;;;;;4981278;28;20156;-65
2023/01/31 11:32:16;;;;;;;29.20;4.30;;;;;;;;;;4947677;28;20590;-65
2023/01/31 11:34:54;;;;;;;25.23;4.13;;;;;;;;;;4957781;28;20086;-65
2023/01/31 11:37:20;;;;;;;11.82;3.50;;;;;;;;;;4981422;28;20057;-65
2023/01/31 11:39:57;;;;;;;18.08;3.47;;;;;;;;;;4960366;28;20054;-65
2023/01/31 11:42:23;;;;;;;16.27;3.50;;;;;;;;;;4975092;28;20174;-65
2023/01/31 11:44:56;;;;;;;12.95;2.85;;;;;;;;;;4953902;28;20067;-65
2023/01/31 11:47:25;;;;;;;16.63;3.97;;;;;;;;;;4974673;28;20057;-65
2023/01/31 11:49:51;;;;;;;7.82;2.65;;;;;;;;;;4974066;28;20463;-65
2023/01/31 11:52:21;;;;;;;17.35;3.88;;;;;;;;;;4982798;28;20050;-65
2023/01/31 11:54:53;;;;;;;17.50;3.28;;;;;;;;;;4968536;28;20050;-65
2023/01/31 11:57:31;;;;;;;17.45;3.50;;;;;;;;;;4957419;28;20050;-65
2023/01/31 11:59:58;;;;;;;22.98;3.42;;;;;;;;;;4981945;28;20153;-65
2023/01/31 12:02:51;;;;;;;20.55;3.50;;;;;;;;;;4955233;28;20074;-65
2023/01/31 12:05:17;;;;;;;14.93;3.40;;;;;;;;;;4962149;28;20172;-65
2023/01/31 12:07:43;;;;;;;12.88;4.07;;;;;;;;;;4965997;28;20046;-65
2023/01/31 12:10:30;;;;;;;21.13;4.25;;;8.50;99.90;;;;;;4967682;28;20057;-65
2023/01/31 12:13:01;;;;;;;14.57;3.83;;;;;;;;;;4984758;28;20066;-65
2023/01/31 12:15:28;;;;;;;18.45;3.42;;;;;;;;;;4969204;28;20038;-65
2023/01/31 12:17:55;;;;;;;16.67;3.88;;;;;;;;;;4963251;28;20109;-65
2023/01/31 12:20:43;;;;;;;11.18;3.90;;;8.70;99.90;;;;;;4980742;28;20081;-65
2023/01/31 12:23:21;;;;;;;14.68;3.30;;;;;;;;;;4976649;28;20070;-65
2023/01/31 12:25:59;;;;;;;22.10;3.95;;;8.80;99.90;;;;;;4974176;28;20053;-65
2023/01/31 12:28:34;;;;;;;15.38;3.92;;;8.50;99.90;;;;;;4974863;28;20046;-65
2023/01/31 12:31:00;;;;;;;;;;;;;;;;;;4984011;28;20054;-65
2023/01/31 12:33:43;;;;;;;22.65;4.00;;;;;;;;;;4957981;28;19922;-65
2023/01/31 12:36:30;;;;;;;17.40;3.58;;;;;;;;;;4981817;28;20100;-65
2023/01/31 12:39:40;;;;;;;20.67;3.70;;;8.80;99.90;;;;;;4982216;28;20054;-65
2023/01/31 12:42:08;;;;;;;21.80;3.70;;;;;;;;;;4888463;29;20091;-65
2023/01/31 12:44:43;;;;;;;17.55;3.50;;;;;;;;;;4886457;29;20048;-65
2023/01/31 12:47:12;;;;;;;16.58;4.05;;;;;;;;;;4928335;28;20082;-65
2023/01/31 12:49:57;;;;;;;19.23;3.97;;;;;;;;;;4962419;28;20488;-65
2023/01/31 12:52:25;;;;;;;18.90;6.18;;;;;;;;;;4982713;28;20397;-65
2023/01/31 12:55:01;;;;;;;18.70;3.38;;;;;;;;;;4982889;28;20073;-65
2023/01/31 12:57:27;;;;;;;13.50;3.38;;;;;;;;;;4964396;28;20066;-65
2023/01/31 12:59:55;;;;;;;12.50;2.70;;;;;;;;;;4983275;28;20070;-65
2023/01/31 13:02:24;;;;;;;16.42;3.70;;;;;;;;;;4967503;28;20082;-65
2023/01/31 13:05:09;;;;;;;15.63;3.30;;;;;;;;;;4985439;28;20041;-65
2023/01/31 13:07:39;;;;;;;16.88;3.33;;;;;;;;;;4962856;28;20062;-65
2023/01/31 13:10:16;;;;;;;16.80;3.90;;;;;;;;;;4962181;28;20563;-65
2023/01/31 13:12:43;;;;;;;11.73;2.97;;;;;;;;;;4957539;28;20080;-65
2023/01/31 13:15:27;;;;;;;8.02;3.25;;;10.30;99.90;;;;;;4963048;28;20135;-65
2023/01/31 13:17:56;;;;;;;11.85;2.50;;;;;;;;;;4956073;28;20113;-65
2023/01/31 13:20:29;;;;;;;12.98;3.13;;;;;;;;;;4961528;28;20078;-65
2023/01/31 13:22:57;;;;;;;13.73;2.92;;;;;;;;;;4980189;28;20046;-65
2023/01/31 13:25:28;;;;;;;11.25;2.88;;;10.00;99.90;;;;;;4963870;28;20846;-65
2023/01/31 13:28:18;;;;;;;12.13;2.95;;;9.80;99.90;;;;;;4981552;28;20038;-65
2023/01/31 13:30:53;;;;;;;19.92;3.17;;;;;;;;;;4985358;28;20050;-65
2023/01/31 13:33:22;;;;;;;15.15;2.67;;;;;;;;;;4985588;28;20159;-65
2023/01/31 13:36:00;;;;;;;12.15;3.38;;;9.60;99.90;;;;;;4961462;28;20120;-65
2023/01/31 13:38:27;;;;;;;13.45;3.17;;;;;;;;;;4964433;28;20504;-65
2023/01/31 13:40:54;;;;;;;9.48;2.60;;;;;;;;;;4964254;28;20522;-65
2023/01/31 13:43:20;;;;;;;13.63;3.35;;;;;;;;;;4980892;28;20043;-65
2023/01/31 13:45:55;;;;;;;20.80;3.47;;;;;;;;;;4964388;28;20049;-65
2023/01/31 13:48:25;;;;;;;12.73;2.88;;;;;;;;;;4961389;28;20042;-65
2023/01/31 13:50:53;;;;;;;17.73;3.50;;;;;;;;;;4980274;28;20037;-65
2023/01/31 13:53:31;;;;;;;11.10;2.95;;;;;;;;;;4975406;28;20527;-65
2023/01/31 13:55:57;;;;;;;11.60;2.40;;;;;;;;;;4979555;28;20038;-65
2023/01/31 13:58:30;;;;;;;13.60;2.67;;;;;;;;;;4950141;28;20050;-65
2023/01/31 14:01:12;;;;;;;10.43;2.67;;;;;;;;;;4984870;28;20069;-65
2023/01/31 14:04:17;;;;;;;15.30;3.25;;;;;;;;;;4975415;28;20070;-65
2023/01/31 14:06:55;;;;;;;13.07;2.63;;;;;;;;;;4853354;29;20063;-65
2023/01/31 14:09:31;;;;;;;12.05;3.65;;;;;;;;;;4856434;29;20060;-65
2023/01/31 14:11:58;;;;;;;14.10;3.08;;;;;;;;;;4941278;28;20042;-65
2023/01/31 14:14:40;;;;;;;17.95;4.82;;;;;;;;;;4933018;28;20117;-65
2023/01/31 14:17:10;;;;;;;12.25;2.85;;;;;;;;;;4980728;28;20081;-65
2023/01/31 14:19:42;;;;;;;9.25;2.88;;;9.30;99.90;;;;;;4966626;28;20046;-65
2023/01/31 14:22:18;;;;;;;12.88;3.65;;;;;;;;;;4963064;28;20074;-65
2023/01/31 14:24:52;;;;;;;16.52;3.30;;;;;;;;;;4979010;28;20622;-65
2023/01/31 14:27:18;;;;;;;13.52;4.43;;;;;;;;;;4961622;28;20407;-65
2023/01/31 14:29:45;;;;;;;14.68;3.22;;;;;;;;;;4975952;28;20054;-65
2023/01/31 14:32:28;;;;;;;11.88;3.45;;;;;;;;;;4981110;28;20038;-65
2023/01/31 14:34:54;;;;;;;15.35;2.92;;;;;;;;;;4957909;28;20389;-65
2023/01/31 14:37:23;;;;;;;18.45;4.03;;;;;;;;;;4977448;28;20431;-65
2023/01/31 14:39:49;;;;;;;19.50;4.00;;;;;;;;;;4959164;28;20047;-65
2023/01/31 14:42:24;;;;;;;18.65;4.03;;;;;;;;;;4958990;28;20082;-65